createdAt,value
2023-05-14T00:01:10.054Z,102161.97
2023-05-14T00:03:37.641Z,102159.59
2023-05-14T00:06:04.513Z,102161.09
2023-05-14T00:08:34.142Z,102154.06
2023-05-14T00:11:00.719Z,102152.88
2023-05-14T00:13:27.404Z,102153.66
2023-05-14T00:15:53.993Z,102143.88
2023-05-14T00:18:22.962Z,102140.78
2023-05-14T00:20:51.601Z,102140.38
2023-05-14T00:23:18.166Z,102146.19
2023-05-14T00:25:44.686Z,102142.56
2023-05-14T00:28:13.381Z,102139.41
2023-05-14T00:30:40.097Z,102133.09
2023-05-14T00:33:07.471Z,102138.50
2023-05-14T00:35:35.928Z,102123.59
2023-05-14T00:38:03.502Z,102129.88
2023-05-14T00:40:30.454Z,102126.28
2023-05-14T00:42:57.127Z,102118.03
2023-05-14T00:45:24.841Z,102123.13
2023-05-14T00:48:09.671Z,102123.09
2023-05-14T00:50:36.487Z,102113.25
2023-05-14T00:53:04.132Z,102108.91
2023-05-14T00:55:44.436Z,102108.97
2023-05-14T00:58:18.231Z,102103.88
2023-05-14T01:00:44.973Z,102105.44
2023-05-14T01:03:11.700Z,102101.50
2023-05-14T01:05:52.700Z,102111.66
2023-05-14T01:08:41.222Z,102113.63
2023-05-14T01:11:37.442Z,102106.53
2023-05-14T01:14:29.038Z,102104.94
2023-05-14T01:16:59.674Z,102099.44
2023-05-14T01:19:41.772Z,102101.28
2023-05-14T01:22:09.085Z,102093.06
2023-05-14T01:24:36.168Z,102102.88
2023-05-14T01:27:21.856Z,102094.25
2023-05-14T01:29:58.142Z,102101.28
2023-05-14T01:32:26.287Z,102103.22
2023-05-14T01:34:55.408Z,102101.22
2023-05-14T01:37:23.716Z,102097.69
2023-05-14T01:39:54.159Z,102105.91
2023-05-14T01:45:03.501Z,102099.09
2023-05-14T01:47:30.079Z,102104.50
2023-05-14T01:49:56.735Z,102094.78
2023-05-14T01:52:23.569Z,102090.06
2023-05-14T01:54:50.225Z,102096.31
2023-05-14T01:57:16.863Z,102094.75
2023-05-14T01:59:43.556Z,102088.50
2023-05-14T02:02:10.226Z,102078.69
2023-05-14T02:04:36.814Z,102084.19
2023-05-14T02:07:03.458Z,102067.34
2023-05-14T02:09:30.739Z,102065.78
2023-05-14T02:11:57.292Z,102059.84
2023-05-14T02:14:33.093Z,102075.88
2023-05-14T02:16:59.747Z,102066.13
2023-05-14T02:19:26.445Z,102060.66
2023-05-14T02:21:54.154Z,102070.38
2023-05-14T02:24:20.950Z,102071.53
2023-05-14T02:26:56.697Z,102072.28
2023-05-14T02:29:23.308Z,102069.84
2023-05-14T02:31:50.002Z,102073.34
2023-05-14T02:34:16.777Z,102069.78
2023-05-14T02:36:43.447Z,102060.69
2023-05-14T02:39:10.282Z,102052.44
2023-05-14T02:41:36.880Z,102048.53
2023-05-14T02:44:03.463Z,102059.47
2023-05-14T02:46:31.336Z,102052.88
2023-05-14T02:48:58.400Z,102054.34
2023-05-14T02:51:34.286Z,102053.19
2023-05-14T02:54:00.913Z,102057.84
2023-05-14T02:56:27.606Z,102057.91
2023-05-14T02:58:57.409Z,102057.50
2023-05-14T03:01:26.546Z,102057.50
2023-05-14T03:03:53.743Z,102057.44
2023-05-14T03:06:20.363Z,102049.13
2023-05-14T03:08:46.979Z,102053.03
2023-05-14T03:14:24.521Z,102053.50
2023-05-14T03:16:54.969Z,102043.25
2023-05-14T03:19:21.700Z,102043.16
2023-05-14T03:21:50.064Z,102040.78
2023-05-14T03:24:16.677Z,102050.50
2023-05-14T03:26:43.337Z,102051.28
2023-05-14T03:29:25.183Z,102046.25
2023-05-14T03:32:04.490Z,102045.69
2023-05-14T03:34:31.141Z,102046.91
2023-05-14T03:37:06.945Z,102045.34
2023-05-14T03:39:33.812Z,102035.94
2023-05-14T03:42:07.002Z,102041.84
2023-05-14T03:44:33.624Z,102047.34
2023-05-14T03:47:00.376Z,102052.81
2023-05-14T03:49:36.111Z,102052.38
2023-05-14T03:52:22.874Z,102037.06
2023-05-14T03:55:07.433Z,102037.94
2023-05-14T03:57:34.163Z,102033.63
2023-05-14T04:00:16.829Z,102033.63
2023-05-14T04:02:54.544Z,102036.38
2023-05-14T04:05:21.369Z,102033.22
2023-05-14T04:07:48.016Z,102032.03
2023-05-14T04:10:14.696Z,102026.16
2023-05-14T04:12:41.484Z,102026.41
2023-05-14T04:15:08.889Z,102026.72
2023-05-14T04:17:35.550Z,102031.41
2023-05-14T04:20:27.521Z,102017.00
2023-05-14T04:22:54.229Z,102017.78
2023-05-14T04:25:20.893Z,102023.97
2023-05-14T04:27:47.571Z,102029.44
2023-05-14T04:30:14.262Z,102024.75
2023-05-14T04:32:40.973Z,102025.47
2023-05-14T04:35:09.306Z,102024.38
2023-05-14T04:37:36.229Z,102023.28
2023-05-14T04:40:02.837Z,102022.63
2023-05-14T04:42:29.466Z,102028.88
2023-05-14T04:44:56.069Z,102032.00
2023-05-14T04:47:22.730Z,102027.75
2023-05-14T04:49:49.405Z,102030.16
2023-05-14T04:52:16.102Z,102032.56
2023-05-14T04:54:42.733Z,102029.88
2023-05-14T04:57:09.420Z,102029.91
2023-05-14T04:59:36.062Z,102033.06
2023-05-14T05:02:02.725Z,102039.38
2023-05-14T05:04:29.409Z,102036.25
2023-05-14T05:06:56.014Z,102031.22
2023-05-14T05:09:22.661Z,102031.63
2023-05-14T05:11:49.364Z,102033.31
2023-05-14T05:14:16.035Z,102032.16
2023-05-14T05:16:51.398Z,102036.47
2023-05-14T05:19:18.849Z,102033.31
2023-05-14T05:21:47.603Z,102038.41
2023-05-14T05:24:14.309Z,102037.66
2023-05-14T05:26:43.590Z,102039.66
2023-05-14T05:29:10.279Z,102040.47
2023-05-14T05:31:37.018Z,102049.88
2023-05-14T05:34:04.018Z,102045.25
2023-05-14T05:36:31.074Z,102047.22
2023-05-14T05:38:57.630Z,102044.91
2023-05-14T05:41:24.262Z,102039.84
2023-05-14T05:43:50.982Z,102037.56
2023-05-14T05:46:17.585Z,102038.03
2023-05-14T05:48:44.353Z,102050.88
2023-05-14T05:51:11.479Z,102050.91
2023-05-14T05:53:38.040Z,102049.31
2023-05-14T05:56:04.862Z,102047.75
2023-05-14T05:58:31.492Z,102045.44
2023-05-14T06:00:58.279Z,102046.59
2023-05-14T06:03:25.109Z,102052.91
2023-05-14T06:05:52.755Z,102057.59
2023-05-14T06:08:19.438Z,102060.25
2023-05-14T06:10:47.651Z,102056.75
2023-05-14T06:13:14.596Z,102049.94
2023-05-14T06:15:41.401Z,102055.25
2023-05-14T06:18:08.134Z,102056.03
2023-05-14T06:20:41.431Z,102046.69
2023-05-14T06:23:08.493Z,102049.50
2023-05-14T06:25:35.167Z,102055.72
2023-05-14T06:28:01.721Z,102066.75
2023-05-14T06:30:28.377Z,102072.38
2023-05-14T06:32:55.212Z,102059.31
2023-05-14T06:35:21.879Z,102055.06
2023-05-14T06:37:48.523Z,102066.78
2023-05-14T06:40:16.225Z,102062.13
2023-05-14T06:42:42.800Z,102054.88
2023-05-14T06:45:09.816Z,102071.44
2023-05-14T06:47:36.659Z,102060.03
2023-05-14T06:56:15.156Z,102055.69
2023-05-14T06:58:41.765Z,102056.50
2023-05-14T07:01:08.427Z,102044.13
2023-05-14T07:03:36.317Z,102044.66
2023-05-14T07:06:03.005Z,102054.13
2023-05-14T07:11:33.045Z,102061.06
2023-05-14T07:14:03.032Z,102055.06
2023-05-14T07:32:53.522Z,102054.19
2023-05-14T07:35:23.154Z,102057.75
2023-05-14T07:38:12.491Z,102050.34
2023-05-14T07:40:49.259Z,102054.28
2023-05-14T07:43:15.941Z,102046.84
2023-05-14T07:46:17.899Z,102041.38
2023-05-14T07:48:44.591Z,102044.50
2023-05-14T07:53:59.642Z,102033.13
2023-05-14T08:04:27.209Z,102044.47
2023-05-14T08:07:57.774Z,102040.97
2023-05-14T08:10:26.294Z,102039.41
2023-05-14T08:13:21.649Z,102037.84
2023-05-14T08:18:34.693Z,102031.94
2023-05-14T08:21:03.927Z,102031.19
2023-05-14T08:23:35.665Z,102036.25
2023-05-14T08:26:02.927Z,102038.22
2023-05-14T08:32:23.399Z,102038.97
2023-05-14T08:34:56.081Z,102035.84
2023-05-14T08:37:46.649Z,102034.66
2023-05-14T08:40:16.365Z,102038.16
2023-05-14T08:42:46.005Z,102042.88
2023-05-14T08:45:52.143Z,102032.28
2023-05-14T08:51:16.765Z,102020.06
2023-05-14T08:53:55.375Z,102025.16
2023-05-14T08:57:28.275Z,102025.13
2023-05-14T08:59:57.451Z,102024.72
2023-05-14T09:02:28.182Z,102028.25
2023-05-14T09:10:23.175Z,102009.84
2023-05-14T09:13:28.322Z,102008.22
2023-05-14T09:19:08.218Z,102011.75
2023-05-14T09:24:44.871Z,101992.41
2023-05-14T09:27:20.839Z,101999.06
2023-05-14T09:29:48.386Z,102005.34
2023-05-14T09:32:26.989Z,101999.44
2023-05-14T09:35:18.147Z,101988.44
2023-05-14T09:37:47.093Z,101992.34
2023-05-14T09:40:15.683Z,101991.50
2023-05-14T09:42:53.068Z,101984.78
2023-05-14T09:45:24.074Z,101986.28
2023-05-14T09:48:04.132Z,101981.97
2023-05-14T09:50:30.814Z,101988.63
2023-05-14T09:52:59.073Z,101986.25
2023-05-14T09:55:26.189Z,101987.34
2023-05-14T09:57:52.754Z,101980.88
2023-05-14T10:00:20.183Z,101979.19
2023-05-14T10:02:47.764Z,101981.13
2023-05-14T10:06:45.725Z,101976.75
2023-05-14T10:09:16.916Z,101980.56
2023-05-14T10:15:07.179Z,101972.94
2023-05-14T10:17:36.301Z,101974.44
2023-05-14T10:20:07.790Z,101964.44
2023-05-14T10:22:52.663Z,101967.00
2023-05-14T10:25:19.597Z,101968.91
2023-05-14T10:28:09.470Z,101957.84
2023-05-14T10:30:36.164Z,101963.22
2023-05-14T10:33:08.796Z,101963.41
2023-05-14T10:36:00.803Z,101967.88
2023-05-14T10:38:58.785Z,101964.00
2023-05-14T10:41:28.320Z,101962.34
2023-05-14T10:43:57.655Z,101960.88
2023-05-14T10:46:43.797Z,101952.78
2023-05-14T10:49:11.500Z,101941.97
2023-05-14T10:51:38.195Z,101947.31
2023-05-14T10:54:08.355Z,101944.31
2023-05-14T10:56:37.262Z,101947.03
2023-05-14T10:59:10.129Z,101947.00
2023-05-14T11:01:37.002Z,101941.88
2023-05-14T11:04:19.710Z,101937.38
2023-05-14T11:07:09.486Z,101936.75
2023-05-14T11:09:38.027Z,101924.59
2023-05-14T11:12:05.292Z,101927.31
2023-05-14T11:14:32.031Z,101928.34
2023-05-14T11:17:16.639Z,101938.22
2023-05-14T11:19:45.008Z,101934.16
2023-05-14T11:22:14.593Z,101923.53
2023-05-14T11:24:45.379Z,101925.09
2023-05-14T11:33:40.181Z,101913.22
2023-05-14T11:54:01.377Z,101889.91
2023-05-14T11:56:28.076Z,101900.59
2023-05-14T11:59:59.341Z,101901.38
2023-05-14T12:02:29.159Z,101898.75
2023-05-14T12:04:56.072Z,101893.28
2023-05-14T12:07:56.238Z,101892.63
2023-05-14T12:10:53.232Z,101888.56
2023-05-14T12:24:55.139Z,101875.84
2023-05-14T13:00:18.664Z,101836.06
2023-05-14T13:02:45.400Z,101846.03
2023-05-14T13:07:59.750Z,101838.25
2023-05-14T13:10:26.539Z,101836.78
2023-05-14T13:12:53.233Z,101838.69
2023-05-14T13:15:19.850Z,101849.69
2023-05-14T13:17:46.644Z,101835.47
2023-05-14T13:20:13.369Z,101833.91
2023-05-14T13:22:43.047Z,101832.44
2023-05-14T13:25:10.064Z,101827.50
2023-05-14T13:27:37.073Z,101829.06
2023-05-14T13:32:47.644Z,101823.84
2023-05-14T13:35:14.430Z,101827.84
2023-05-14T13:41:58.407Z,101823.09
2023-05-14T13:44:25.152Z,101823.84
2023-05-14T13:46:51.986Z,101824.97
2023-05-14T13:49:18.975Z,101816.47
2023-05-14T13:51:45.860Z,101810.59
2023-05-14T13:54:13.882Z,101826.06
2023-05-14T13:56:40.548Z,101815.09
2023-05-14T13:59:07.472Z,101815.19
2023-05-14T14:01:34.309Z,101809.31
2023-05-14T14:04:01.058Z,101805.19
2023-05-14T14:06:33.916Z,101807.84
2023-05-14T14:09:00.774Z,101791.91
2023-05-14T14:11:27.767Z,101801.34
2023-05-14T14:13:54.553Z,101799.19
2023-05-14T14:16:21.337Z,101804.22
2023-05-14T14:18:47.981Z,101796.38
2023-05-14T14:21:33.468Z,101793.81
2023-05-14T14:24:00.143Z,101791.47
2023-05-14T14:26:46.305Z,101785.50
2023-05-14T14:29:12.991Z,101781.63
2023-05-14T14:31:39.744Z,101783.50
2023-05-14T14:34:06.336Z,101788.81
2023-05-14T14:36:32.985Z,101784.59
2023-05-14T14:38:59.656Z,101780.78
2023-05-14T14:41:27.462Z,101779.47
2023-05-14T14:43:54.045Z,101779.81
2023-05-14T14:46:29.840Z,101776.88
2023-05-14T14:48:56.434Z,101781.28
2023-05-14T14:51:23.132Z,101785.63
2023-05-14T14:53:49.802Z,101778.31
2023-05-14T14:56:16.597Z,101781.00
2023-05-14T14:58:50.525Z,101775.59
2023-05-14T15:01:17.249Z,101772.91
2023-05-14T15:03:45.665Z,101777.59
2023-05-14T15:06:13.691Z,101769.97
2023-05-14T15:08:40.541Z,101768.75
2023-05-14T15:11:08.236Z,101773.75
2023-05-14T15:13:34.874Z,101774.28
2023-05-14T15:16:01.525Z,101775.59
2023-05-14T15:18:28.187Z,101771.38
2023-05-14T15:20:55.877Z,101768.47
2023-05-14T15:23:22.428Z,101765.75
2023-05-14T15:25:51.603Z,101766.13
2023-05-14T15:28:50.960Z,101765.69
2023-05-14T15:31:08.264Z,101763.78
2023-05-14T15:33:36.015Z,101761.97
2023-05-14T15:36:02.773Z,101758.84
2023-05-14T15:38:36.720Z,101758.97
2023-05-14T15:41:03.889Z,101752.31
2023-05-14T15:43:39.786Z,101752.31
2023-05-14T15:46:28.088Z,101754.72
2023-05-14T15:48:54.693Z,101750.91
2023-05-14T15:51:25.809Z,101746.09
2023-05-14T15:53:54.265Z,101739.00
2023-05-14T15:56:22.296Z,101737.19
2023-05-14T15:58:49.431Z,101737.00
2023-05-14T16:01:16.186Z,101746.25
2023-05-14T16:03:48.104Z,101741.06
2023-05-14T16:06:20.037Z,101750.06
2023-05-14T16:08:46.594Z,101745.25
2023-05-14T16:11:13.179Z,101747.13
2023-05-14T16:13:41.526Z,101751.16
2023-05-14T16:16:08.299Z,101751.78
2023-05-14T16:18:35.107Z,101750.19
2023-05-14T16:21:04.845Z,101750.31
2023-05-14T16:23:31.429Z,101761.03
2023-05-14T16:25:57.988Z,101753.13
2023-05-14T16:28:25.813Z,101745.09
2023-05-14T16:30:52.431Z,101740.44
2023-05-14T16:33:19.069Z,101745.19
2023-05-14T16:35:45.704Z,101743.88
2023-05-14T16:38:15.501Z,101743.75
2023-05-14T16:40:42.178Z,101746.94
2023-05-14T16:43:08.884Z,101747.63
2023-05-14T16:45:37.310Z,101744.16
2023-05-14T16:48:05.050Z,101752.44
2023-05-14T16:50:31.860Z,101747.09
2023-05-14T16:52:59.537Z,101756.72
2023-05-14T16:55:26.489Z,101763.91
2023-05-14T16:57:53.055Z,101753.25
2023-05-14T17:00:19.783Z,101757.19
2023-05-14T17:02:49.133Z,101758.88
2023-05-14T17:05:16.365Z,101771.56
2023-05-14T17:07:42.946Z,101759.78
2023-05-14T17:10:12.330Z,101763.84
2023-05-14T17:12:40.103Z,101771.91
2023-05-14T17:15:07.572Z,101763.03
2023-05-14T17:17:34.464Z,101757.34
2023-05-14T17:20:01.130Z,101764.19
2023-05-14T17:22:27.814Z,101767.47
2023-05-14T17:24:54.579Z,101774.72
2023-05-14T17:27:21.222Z,101770.06
2023-05-14T17:29:51.029Z,101772.53
2023-05-14T17:32:18.645Z,101766.00
2023-05-14T17:34:45.344Z,101768.41
2023-05-14T17:37:12.080Z,101766.97
2023-05-14T17:39:39.042Z,101780.06
2023-05-14T17:42:07.459Z,101763.56
2023-05-14T17:44:34.042Z,101769.97
2023-05-14T17:47:00.910Z,101766.59
2023-05-14T17:49:27.754Z,101765.16
2023-05-14T17:51:54.464Z,101771.16
2023-05-14T17:54:22.086Z,101768.50
2023-05-14T17:56:50.972Z,101779.22
2023-05-14T17:59:17.811Z,101787.25
2023-05-14T18:01:44.606Z,101781.31
2023-05-14T18:04:11.375Z,101790.31
2023-05-14T18:06:38.157Z,101789.13
2023-05-14T18:09:04.775Z,101792.34
2023-05-14T18:11:33.979Z,101788.88
2023-05-14T18:14:01.231Z,101787.84
2023-05-14T18:16:28.207Z,101788.81
2023-05-14T18:18:56.315Z,101792.31
2023-05-14T18:21:23.174Z,101794.31
2023-05-14T18:23:50.921Z,101791.56
2023-05-14T18:26:17.843Z,101795.19
2023-05-14T18:38:23.316Z,101799.78
2023-05-14T18:40:55.004Z,101794.31
2023-05-14T18:43:21.601Z,101803.81
2023-05-14T18:45:50.891Z,101797.16
2023-05-14T18:48:17.634Z,101804.25
2023-05-14T18:50:44.226Z,101801.56
2023-05-14T18:53:12.855Z,101808.69
2023-05-14T18:55:39.448Z,101818.06
2023-05-14T18:58:06.176Z,101812.66
2023-05-14T19:00:32.949Z,101810.72
2023-05-14T19:02:59.649Z,101816.59
2023-05-14T19:05:26.643Z,101816.66
2023-05-14T19:07:53.521Z,101821.00
2023-05-14T19:10:20.085Z,101817.47
2023-05-14T19:12:47.498Z,101806.13
2023-05-14T19:15:14.391Z,101807.34
2023-05-14T19:17:42.053Z,101812.50
2023-05-14T19:20:09.504Z,101816.41
2023-05-14T19:22:36.198Z,101819.97
2023-05-14T19:25:03.725Z,101826.72
2023-05-14T19:27:36.467Z,101812.97
2023-05-14T19:30:03.208Z,101811.00
2023-05-14T19:32:29.866Z,101804.34
2023-05-14T19:34:58.973Z,101806.72
2023-05-14T19:37:26.273Z,101810.69
2023-05-14T19:39:52.957Z,101804.03
2023-05-14T19:42:19.628Z,101816.19
2023-05-14T19:44:48.355Z,101816.59
2023-05-14T19:47:15.101Z,101811.50
2023-05-14T19:49:41.828Z,101810.38
2023-05-14T19:52:08.506Z,101813.09
2023-05-14T19:54:35.099Z,101810.38
2023-05-14T19:57:01.709Z,101811.16
2023-05-14T19:59:29.826Z,101809.59
2023-05-14T20:01:56.509Z,101804.91
2023-05-14T20:04:23.313Z,101804.13
2023-05-14T20:06:50.010Z,101805.69
2023-05-14T20:09:18.687Z,101803.31
2023-05-14T20:11:45.236Z,101804.91
2023-05-14T20:14:11.842Z,101808.84
2023-05-14T20:16:38.486Z,101808.06
2023-05-14T20:19:05.274Z,101801.41
2023-05-14T20:21:31.967Z,101805.31
2023-05-14T20:23:58.661Z,101804.50
2023-05-14T20:26:25.343Z,101801.00
2023-05-14T20:28:52.026Z,101805.28
2023-05-14T20:31:19.245Z,101798.63
2023-05-14T20:33:45.941Z,101799.81
2023-05-14T20:36:15.110Z,101798.25
2023-05-14T20:38:41.879Z,101795.91
2023-05-14T20:41:09.667Z,101799.38
2023-05-14T20:43:36.333Z,101797.81
2023-05-14T20:46:03.067Z,101786.44
2023-05-14T20:48:29.686Z,101782.16
2023-05-14T20:50:56.331Z,101784.91
2023-05-14T20:53:22.927Z,101785.28
2023-05-14T20:55:49.507Z,101792.31
2023-05-14T20:58:16.180Z,101779.78
2023-05-14T21:00:43.453Z,101780.19
2023-05-14T21:03:10.176Z,101783.72
2023-05-14T21:05:37.028Z,101771.56
2023-05-14T21:08:03.632Z,101768.44
2023-05-14T21:10:30.295Z,101770.41
2023-05-14T21:12:56.910Z,101773.13
2023-05-14T21:15:23.942Z,101771.53
2023-05-14T21:17:50.642Z,101775.47
2023-05-14T21:20:17.457Z,101776.25
2023-05-14T21:22:44.028Z,101771.53
2023-05-14T21:25:11.107Z,101777.41
2023-05-14T21:27:37.770Z,101780.53
2023-05-14T21:30:04.849Z,101782.88
2023-05-14T21:32:31.422Z,101779.38
2023-05-14T21:35:00.112Z,101787.19
2023-05-14T21:37:26.797Z,101778.56
2023-05-14T21:39:53.406Z,101778.56
2023-05-14T21:42:21.089Z,101773.84
2023-05-14T21:44:47.778Z,101771.50
2023-05-14T21:47:15.960Z,101766.78
2023-05-14T21:49:43.099Z,101760.94
2023-05-14T21:52:09.755Z,101755.81
2023-05-14T21:54:36.399Z,101762.88
2023-05-14T21:57:03.226Z,101767.16
2023-05-14T21:59:29.774Z,101769.88
2023-05-14T22:02:07.040Z,101768.69
2023-05-14T22:04:34.102Z,101770.25
2023-05-14T22:07:00.963Z,101766.72
2023-05-14T22:09:27.693Z,101759.28
2023-05-14T22:11:54.314Z,101751.03
2023-05-14T22:14:20.973Z,101749.84
2023-05-14T22:16:47.630Z,101754.16
2023-05-14T22:19:16.461Z,101755.72
2023-05-14T22:21:43.152Z,101745.97
2023-05-14T22:24:09.750Z,101747.91
2023-05-14T22:26:36.366Z,101745.56
2023-05-14T22:29:02.942Z,101747.91
2023-05-14T22:31:30.008Z,101747.09
2023-05-14T22:33:56.716Z,101749.84
2023-05-14T22:36:23.423Z,101744.34
2023-05-14T22:38:49.979Z,101743.94
2023-05-14T22:41:17.595Z,101745.13
2023-05-14T22:43:44.357Z,101736.91
2023-05-14T22:46:11.059Z,101729.41
2023-05-14T22:48:37.610Z,101728.63
2023-05-14T22:51:04.288Z,101729.41
2023-05-14T22:53:30.952Z,101728.63
2023-05-14T22:55:57.482Z,101724.31
2023-05-14T22:58:24.264Z,101723.53
2023-05-14T23:00:59.866Z,101718.06
2023-05-14T23:03:29.050Z,101713.00
2023-05-14T23:05:55.734Z,101715.69
2023-05-14T23:08:22.340Z,101705.53
2023-05-14T23:10:48.909Z,101710.19
2023-05-14T23:13:15.505Z,101709.03
2023-05-14T23:15:43.976Z,101715.69
2023-05-14T23:18:10.797Z,101710.59
2023-05-14T23:20:37.533Z,101714.53
2023-05-14T23:23:04.196Z,101711.38
2023-05-14T23:25:32.386Z,101707.88
2023-05-14T23:27:59.115Z,101705.50
2023-05-14T23:30:25.813Z,101696.94
2023-05-14T23:32:52.429Z,101689.88
2023-05-14T23:35:19.057Z,101691.06
2023-05-14T23:37:47.470Z,101684.81
2023-05-14T23:40:14.323Z,101681.28
2023-05-14T23:42:41.183Z,101678.56
2023-05-14T23:45:09.525Z,101668.41
2023-05-14T23:47:36.203Z,101666.03
2023-05-14T23:50:03.299Z,101667.22
2023-05-14T23:52:29.792Z,101659.00
2023-05-14T23:54:56.362Z,101655.84
2023-05-14T23:57:22.980Z,101666.00
2023-05-14T23:59:49.625Z,101675.38
